Time;durP1;ratioP1;P1;durP2;ratioP2;P2;SDS_P1;SDS_P2;PMS_P1;PMS_P2;Temp;Humidity;BMP_temperature;BMP_pressure;BME280_temperature;BME280_humidity;BME280_pressure;Samples;Min_cycle;Max_cycle;Signal;HPM_P1;HPM_P2
2023/05/08 00:00:39;;;;;;;;;;;;;;;;;;5083006;28;20308;-65
2023/05/08 00:03:05;;;;;;;;;;;;;;;;;;5091178;28;19928;-65
2023/05/08 00:05:31;;;;;;;;;;;;;;;;;;5088759;28;19929;-66
2023/05/08 00:08:00;;;;;;;;;;;;;;;;;;5091577;28;19920;-66
2023/05/08 00:10:26;;;;;;;;;;;;;;;;;;5091522;28;19997;-66
2023/05/08 00:12:52;;;;;;;;;;;;;;;;;;5079493;28;19925;-66
2023/05/08 00:15:18;;;;;;;;;;;;;;;;;;5082045;28;20313;-66
2023/05/08 00:17:43;;;;;;;;;;;;;;;;;;5089679;28;19965;-66
2023/05/08 00:20:09;;;;;;;;;;;;;;;;;;5091198;28;19927;-65
2023/05/08 00:22:35;;;;;;;;;;;;;;;;;;5090387;28;19928;-65
2023/05/08 00:25:03;;;;;;;;;;;;;;;;;;5091114;28;20027;-65
2023/05/08 00:27:29;;;;;;;;;;;;;;;;;;5088687;28;19943;-65
2023/05/08 00:29:54;;;;;;;;;;;;;;;;;;5087030;28;20362;-65
2023/05/08 00:32:20;;;;;;;;;;;;;;;;;;5088247;28;19935;-65
2023/05/08 00:34:46;;;;;;;;;;;;;;;;;;5090179;28;19920;-66
2023/05/08 00:37:12;;;;;;;;;;;;;;;;;;5088631;28;20061;-65
2023/05/08 00:39:38;;;;;;;;;;;;;;;;;;5080125;28;19924;-66
2023/05/08 00:42:04;;;;;;;;;;;;;;;;;;5088703;28;19924;-66
2023/05/08 00:44:30;;;;;;;;;;;;;;;;;;5090388;28;19920;-66
2023/05/08 00:46:56;;;;;;;;;;;;;;;;;;5086163;28;20376;-67
2023/05/08 00:49:21;;;;;;;;;;;;;;;;;;5087681;28;20020;-66
2023/05/08 00:51:48;;;;;;;;;;;;;;;;;;5090962;28;20003;-66
2023/05/08 00:54:13;;;;;;;;;;;;;;;;;;5084560;28;20334;-66
2023/05/08 00:56:39;;;;;;;;;;;;;;;;;;5089121;28;20002;-66
2023/05/08 00:59:05;;;;;;;;;;;;;;;;;;5091716;28;19935;-66
2023/05/08 01:01:31;;;;;;;;;;;;;;;;;;5065775;28;20358;-65
2023/05/08 01:03:57;;;;;;;;;;;;;;;;;;5086002;28;19926;-65
2023/05/08 01:06:23;;;;;;;;;;;;;;;;;;5089615;28;19925;-65
2023/05/08 01:08:49;;;;;;;;;;;;;;;;;;5089372;28;19924;-65
2023/05/08 01:11:15;;;;;;;;;;;;;;;;;;5088060;28;19967;-65
2023/05/08 01:13:41;;;;;;;;;;;;;;;;;;5084467;28;20282;-65
2023/05/08 01:16:07;;;;;;;;;;;;;;;;;;5086904;28;19920;-66
2023/05/08 01:18:33;;;;;;;;;;;;;;;;;;5087998;28;20007;-65
2023/05/08 01:21:00;;;;;;;;;;;;;;;;;;5088870;28;19920;-66
2023/05/08 01:23:25;;;;;;;;;;;;;;;;;;5084736;28;20468;-66
2023/05/08 01:25:51;;;;;;;;;;;;;;;;;;5075977;28;19932;-66
2023/05/08 01:28:17;;;;;;;;;;;;;;;;;;5104085;28;20010;-66
2023/05/08 01:30:43;;;;;;;;;;;;;;;;;;5091155;28;19930;-66
2023/05/08 01:33:09;;;;;;;;;;;;;;;;;;5092439;28;19924;-66
2023/05/08 01:35:35;;;;;;;;;;;;;;;;;;5095058;28;20511;-66
2023/05/08 01:38:01;;;;;;;;;;;;;;;;;;5089833;28;19920;-67
2023/05/08 01:40:27;;;;;;;;;;;;;;;;;;5092587;28;20055;-66
2023/05/08 01:42:53;;;;;;;;;;;;;;;;;;5091417;28;19924;-65
2023/05/08 01:45:19;;;;;;;;;;;;;;;;;;5086939;28;19976;-66
2023/05/08 01:47:45;;;;;;;;;;;;;;;;;;5091390;28;20010;-66
2023/05/08 01:50:10;;;;;;;;;;;;;;;;;;5094513;28;20405;-66
2023/05/08 01:52:36;;;;;;;;;;;;;;;;;;5088810;28;19969;-66
2023/05/08 01:55:02;;;;;;;;;;;;;;;;;;5092133;28;20304;-66
2023/05/08 01:57:28;;;;;;;;;;;;;;;;;;5104782;28;19978;-66
2023/05/08 01:59:54;;;;;;;;;;;;;;;;;;5098294;28;19920;-66
2023/05/08 02:02:20;;;;;;;;;;;;;;;;;;5089723;28;19935;-66
2023/05/08 02:04:46;;;;;;;;;;;;;;;;;;5092226;28;19932;-65
2023/05/08 02:07:12;;;;;;;;;;;;;;;;;;5091509;28;19965;-65
2023/05/08 02:09:38;;;;;;;;;;;;;;;;;;5091569;28;20365;-65
2023/05/08 02:12:03;;;;;;;;;;;;;;;;;;5090588;28;19930;-65
2023/05/08 02:14:29;;;;;;;;;;;;;;;;;;5101184;28;19924;-65
2023/05/08 02:16:55;;;;;;;;;;;;;;;;;;5087999;28;19924;-66
2023/05/08 02:19:21;;;;;;;;;;;;;;;;;;5091751;28;19974;-66
2023/05/08 02:21:47;;;;;;;;;;;;;;;;;;5089521;28;20472;-66
2023/05/08 02:24:13;;;;;;;;;;;;;;;;;;5090025;28;19931;-65
2023/05/08 02:26:39;;;;;;;;;;;;;;;;;;5091481;28;20006;-65
2023/05/08 02:29:05;;;;;;;;;;;;;;;;;;5105837;28;19924;-66
2023/05/08 02:31:31;;;;;;;;;;;;;;;;;;5087846;28;20043;-65
2023/05/08 02:33:57;;;;;;;;;;;;;;;;;;5087674;28;19924;-65
2023/05/08 02:36:23;;;;;;;;;;;;;;;;;;5089405;28;20052;-66
2023/05/08 02:38:50;;;;;;;;;;;;;;;;;;5086132;28;19920;-66
2023/05/08 02:41:16;;;;;;;;;;;;;;;;;;5090279;28;19935;-66
2023/05/08 02:43:42;;;;;;;;;;;;;;;;;;5087065;28;19932;-66
2023/05/08 02:46:08;;;;;;;;;;;;;;;;;;5083643;28;19921;-66
2023/05/08 02:48:34;;;;;;;;;;;;;;;;;;5101438;28;19970;-66
2023/05/08 02:51:00;;;;;;;;;;;;;;;;;;5092108;28;20423;-65
2023/05/08 02:53:26;;;;;;;;;;;;;;;;;;5087344;28;19924;-65
2023/05/08 02:55:52;;;;;;;;;;;;;;;;;;5090399;28;19924;-66
2023/05/08 02:58:18;;;;;;;;;;;;;;;;;;5092954;28;19920;-66
2023/05/08 03:00:44;;;;;;;;;;;;;;;;;;5086816;28;19924;-65
2023/05/08 03:03:10;;;;;;;;;;;;;;;;;;5079168;28;19939;-65
2023/05/08 03:05:37;;;;;;;;;;;;;;;;;;5080352;28;20023;-65
2023/05/08 03:08:03;;;;;;;;;;;;;;;;;;5079779;28;19927;-66
2023/05/08 03:10:28;;;;;;;;;;;;;;;;;;5085084;28;19924;-65
2023/05/08 03:12:54;;;;;;;;;;;;;;;;;;5084898;28;19924;-66
2023/05/08 03:15:22;;;;;;;;;;;;;;;;;;5080281;28;19927;-65
2023/05/08 03:17:48;;;;;;;;;;;;;;;;;;5082392;28;19920;-65
2023/05/08 03:20:14;;;;;;;;;;;;;;;;;;5080935;28;20397;-65
2023/05/08 03:22:40;;;;;;;;;;;;;;;;;;5080712;28;20006;-65
2023/05/08 03:25:07;;;;;;;;;;;;;;;;;;5080007;28;19924;-65
2023/05/08 03:27:33;;;;;;;;;;;;;;;;;;5083180;28;20242;-66
2023/05/08 03:29:59;;;;;;;;;;;;;;;;;;5084537;28;19928;-65
2023/05/08 03:32:25;;;;;;;;;;;;;;;;;;5082074;28;19931;-66
2023/05/08 03:34:51;;;;;;;;;;;;;;;;;;5081505;28;19943;-65
2023/05/08 03:37:16;;;;;;;;;;;;;;;;;;5082746;28;19928;-65
2023/05/08 03:39:42;;;;;;;;;;;;;;;;;;5082252;28;19967;-66
2023/05/08 03:42:08;;;;;;;;;;;;;;;;;;5082674;28;20323;-66
2023/05/08 03:44:34;;;;;;;;;;;;;;;;;;5079623;28;19920;-66
2023/05/08 03:47:00;;;;;;;;;;;;;;;;;;5077985;28;19926;-65
2023/05/08 03:49:26;;;;;;;;;;;;;;;;;;5077494;28;20601;-66
2023/05/08 03:51:52;;;;;;;;;;;;;;;;;;5082888;28;19924;-65
2023/05/08 03:54:18;;;;;;;;;;;;;;;;;;5083048;28;19926;-65
2023/05/08 03:56:46;;;;;;;;;;;;;;;;;;5082945;28;20292;-65
2023/05/08 03:59:12;;;;;;;;;;;;;;;;;;5081925;28;20331;-65
2023/05/08 04:01:39;;;;;;;;;;;;;;;;;;5081282;28;19935;-65
2023/05/08 04:04:05;;;;;;;;;;;;;;;;;;5078101;28;19928;-66
2023/05/08 04:06:31;;;;;;;;;;;;;;;;;;5080180;28;19940;-65
2023/05/08 04:08:57;;;;;;;;;;;;;;;;;;5077670;28;19924;-65
2023/05/08 04:11:23;;;;;;;;;;;;;;;;;;5078530;28;19985;-66
2023/05/08 04:13:49;;;;;;;;;;;;;;;;;;5077832;28;20281;-66
2023/05/08 04:16:15;;;;;;;;;;;;;;;;;;5078864;28;19932;-66
2023/05/08 04:18:41;;;;;;;;;;;;;;;;;;5074650;28;19920;-66
2023/05/08 04:21:07;;;;;;;;;;;;;;;;;;5075538;28;19927;-66
2023/05/08 04:23:33;;;;;;;;;;;;;;;;;;5076381;28;19932;-66
2023/05/08 04:25:58;;;;;;;;;;;;;;;;;;5076821;28;21653;-66
2023/05/08 04:28:24;;;;;;;;;;;;;;;;;;5076643;28;19931;-66
2023/05/08 04:30:51;;;;;;;;;;;;;;;;;;5075971;28;20006;-65
2023/05/08 04:33:17;;;;;;;;;;;;;;;;;;5085598;28;19920;-66
2023/05/08 04:35:44;;;;;;;;;;;;;;;;;;5081173;28;19939;-66
2023/05/08 04:38:10;;;;;;;;;;;;;;;;;;5079527;28;20087;-66
2023/05/08 04:40:36;;;;;;;;;;;;;;;;;;5077751;28;19928;-65
2023/05/08 04:43:02;;;;;;;;;;;;;;;;;;5079911;28;20001;-66
2023/05/08 04:45:28;;;;;;;;;;;;;;;;;;5079367;28;20026;-66
2023/05/08 04:47:54;;;;;;;;;;;;;;;;;;5079177;28;19924;-66
2023/05/08 04:50:20;;;;;;;;;;;;;;;;;;5076931;28;19948;-65
2023/05/08 04:52:46;;;;;;;;;;;;;;;;;;5077408;28;19924;-66
2023/05/08 04:55:12;;;;;;;;;;;;;;;;;;5080169;28;19920;-66
2023/05/08 04:57:37;;;;;;;;;;;;;;;;;;5083660;28;19926;-66
2023/05/08 05:00:05;;;;;;;;;;;;;;;;;;5077901;28;20011;-66
2023/05/08 05:02:30;;;;;;;;;;;;;;;;;;5086259;28;20522;-65
2023/05/08 05:04:57;;;;;;;;;;;;;;;;;;5086277;28;19935;-66
2023/05/08 05:07:23;;;;;;;;;;;;;;;;;;5075234;28;20004;-66
2023/05/08 05:09:49;;;;;;;;;;;;;;;;;;5073411;28;19998;-66
2023/05/08 05:12:15;;;;;;;;;;;;;;;;;;5085983;28;19928;-66
2023/05/08 05:14:41;;;;;;;;;;;;;;;;;;5095926;28;19967;-66
2023/05/08 05:17:07;;;;;;;;;;;;;;;;;;5114044;28;19951;-65
2023/05/08 05:19:33;;;;;;;;;;;;;;;;;;5096779;22;19925;-62
2023/05/08 05:21:59;;;;;;;;;;;;;;;;;;5074151;28;20301;-62
2023/05/08 05:24:25;;;;;;;;;;;;;;;;;;5073659;28;19935;-63
2023/05/08 05:26:51;;;;;;;;;;;;;;;;;;5072929;28;19931;-63
2023/05/08 05:29:17;;;;;;;;;;;;;;;;;;5072444;28;20039;-63
2023/05/08 05:31:43;;;;;;;;;;;;;;;;;;5072285;28;19965;-63
2023/05/08 05:34:09;;;;;;;;;;;;;;;;;;5074651;28;19920;-63
2023/05/08 05:36:35;;;;;;;;;;;;;;;;;;5070935;28;19995;-63
2023/05/08 05:39:01;;;;;;;;;;;;;;;;;;5084708;28;19925;-63
2023/05/08 05:41:27;;;;;;;;;;;;;;;;;;5074240;28;19929;-64
2023/05/08 05:43:52;;;;;;;;;;;;;;;;;;5072880;28;20465;-63
2023/05/08 05:46:18;;;;;;;;;;;;;;;;;;5086028;28;19920;-62
2023/05/08 05:48:44;;;;;;;;;;;;;;;;;;5071508;28;20289;-62
2023/05/08 05:51:11;;;;;;;;;;;;;;;;;;5072394;28;20282;-62
2023/05/08 05:53:36;;;;;;;;;;;;;;;;;;5072210;28;19931;-62
2023/05/08 05:56:02;;;;;;;;;;;;;;;;;;5071642;28;19928;-62
2023/05/08 05:58:28;;;;;;;;;;;;;;;;;;5073191;28;19986;-62
2023/05/08 06:00:54;;;;;;;;;;;;;;;;;;5074118;28;19942;-63
2023/05/08 06:03:20;;;;;;;;;;;;;;;;;;5072473;28;19925;-63
2023/05/08 06:05:46;;;;;;;;;;;;;;;;;;5070982;28;19925;-63
2023/05/08 06:08:12;;;;;;;;;;;;;;;;;;5070582;28;19924;-63
2023/05/08 06:10:38;;;;;;;;;;;;;;;;;;5068104;28;20346;-62
2023/05/08 06:13:04;;;;;;;;;;;;;;;;;;5067413;28;19921;-63
2023/05/08 06:15:30;;;;;;;;;;;;;;;;;;5064223;28;20019;-62
2023/05/08 06:17:56;;;;;;;;;;;;;;;;;;5052815;28;19952;-62
2023/05/08 06:20:22;;;;;;;;;;;;;;;;;;5063560;28;19933;-62
2023/05/08 06:22:47;;;;;;;;;;;;;;;;;;5071839;28;20332;-62
2023/05/08 06:25:13;;;;;;;;;;;;;;;;;;5068207;28;19928;-62
2023/05/08 06:27:39;;;;;;;;;;;;;;;;;;5068464;28;19936;-62
2023/05/08 06:30:09;;;;;;;;;;;;;;;;;;5069592;28;19925;-62
2023/05/08 06:32:35;;;;;;;;;;;;;;;;;;5068967;28;19927;-62
2023/05/08 06:35:01;;;;;;;;;;;;;;;;;;5070014;28;19924;-62
2023/05/08 06:37:27;;;;;;;;;;;;;;;;;;5072336;28;19925;-62
2023/05/08 06:39:53;;;;;;;;;;;;;;;;;;5067819;28;19920;-62
2023/05/08 06:42:19;;;;;;;;;;;;;;;;;;5056631;28;20686;-62
2023/05/08 06:44:49;;;;;;;;;;;;;;;;;;5066110;28;19960;-62
2023/05/08 06:47:15;;;;;;;;;;;;;;;;;;5065862;28;20055;-62
2023/05/08 06:49:41;;;;;;;;;;;;;;;;;;5061728;28;19920;-62
2023/05/08 06:52:07;;;;;;;;;;;;;;;;;;5086170;28;19952;-60
2023/05/08 06:54:33;;;;;;;;;;;;;;;;;;5065275;28;20365;-60
2023/05/08 06:56:59;;;;;;;;;;;;;;;;;;5058704;28;19925;-60
2023/05/08 06:59:25;;;;;;;;;;;;;;;;;;5058231;28;19921;-60
2023/05/08 07:01:51;;;;;;;;;;;;;;;;;;5069350;28;20010;-60
2023/05/08 07:04:17;;;;;;;;;;;;;;;;;;5069477;28;20035;-62
2023/05/08 07:06:43;;;;;;;;;;;;;;;;;;5067585;28;19967;-61
2023/05/08 07:09:10;;;;;;;;;;;;;;;;;;5071247;28;19921;-65
2023/05/08 07:11:36;;;;;;;;;;;;;;;;;;5070628;28;19924;-66
2023/05/08 07:14:02;;;;;;;;;;;;;;;;;;5072021;28;19924;-66
2023/05/08 07:16:28;;;;;;;;;;;;;;;;;;5074956;28;20601;-66
2023/05/08 07:18:54;;;;;;;;;;;;;;;;;;5093476;28;19997;-64
2023/05/08 07:21:20;;;;;;;;;;;;;;;;;;5092271;28;20011;-66
2023/05/08 07:23:47;;;;;;;;;;;;;;;;;;5093151;28;19932;-63
2023/05/08 07:26:13;;;;;;;;;;;;;;;;;;5081068;28;19924;-63
2023/05/08 07:28:39;;;;;;;;;;;;;;;;;;5071792;28;19943;-62
2023/05/08 07:31:08;;;;;;;;;;;;;;;;;;5064418;28;19928;-64
2023/05/08 07:33:34;;;;;;;;;;;;;;;;;;5068801;28;19983;-63
2023/05/08 07:36:00;;;;;;;;;;;;;;;;;;5071301;28;19968;-63
2023/05/08 07:38:26;;;;;;;;;;;;;;;;;;5073271;28;20007;-63
2023/05/08 07:40:55;;;;;;;;;;;;;;;;;;5073242;28;19963;-64
2023/05/08 07:43:21;;;;;;;;;;;;;;;;;;5072974;28;19924;-63
2023/05/08 07:45:47;;;;;;;;;;;;;;;;;;5063757;28;20381;-63
2023/05/08 07:48:13;;;;;;;;;;;;;;;;;;5065294;28;19920;-64
2023/05/08 07:50:39;;;;;;;;;;;;;;;;;;5069325;28;19966;-63
2023/05/08 07:53:05;;;;;;;;;;;;;;;;;;5072252;28;19921;-63
2023/05/08 07:55:31;;;;;;;;;;;;;;;;;;5071632;28;19928;-65
2023/05/08 07:57:57;;;;;;;;;;;;;;;;;;5053972;28;20354;-64
2023/05/08 08:00:26;;;;;;;;;;;;;;;;;;5068224;28;20082;-63
2023/05/08 08:02:52;;;;;;;;;;;;;;;;;;5067212;28;19924;-63
2023/05/08 08:05:17;;;;;;;;;;;;;;;;;;5070421;28;19987;-62
2023/05/08 08:07:43;;;;;;;;;;;;;;;;;;5063895;28;19984;-63
2023/05/08 08:10:09;;;;;;;;;;;;;;;;;;5086450;28;20026;-63
2023/05/08 08:12:35;;;;;;;;;;;;;;;;;;5069178;28;20329;-62
2023/05/08 08:15:01;;;;;;;;;;;;;;;;;;5072305;28;19927;-63
2023/05/08 08:17:27;;;;;;;;;;;;;;;;;;5062908;28;19952;-63
2023/05/08 08:19:53;;;;;;;;;;;;;;;;;;5072181;28;20327;-63
2023/05/08 08:22:19;;;;;;;;;;;;;;;;;;5068953;28;19925;-64
2023/05/08 08:24:45;;;;;;;;;;;;;;;;;;5066743;28;20342;-63
2023/05/08 08:27:11;;;;;;;;;;;;;;;;;;5067554;28;19967;-65
2023/05/08 08:29:37;;;;;;;;;;;;;;;;;;5066473;28;20031;-63
2023/05/08 08:32:03;;;;;;;;;;;;;;;;;;5063957;28;20031;-63
2023/05/08 08:34:29;;;;;;;;;;;;;;;;;;5064627;28;19924;-64
2023/05/08 08:36:55;;;;;;;;;;;;;;;;;;5067306;28;20264;-63
2023/05/08 08:39:21;;;;;;;;;;;;;;;;;;5073287;28;19931;-63
2023/05/08 08:41:47;;;;;;;;;;;;;;;;;;5067845;28;19931;-62
2023/05/08 08:44:13;;;;;;;;;;;;;;;;;;5074280;28;19949;-63
2023/05/08 08:46:39;;;;;;;;;;;;;;;;;;5084690;28;19928;-63
2023/05/08 08:49:05;;;;;;;;;;;;;;;;;;5065736;28;19924;-63
2023/05/08 08:51:30;;;;;;;;;;;;;;;;;;5059321;28;20282;-64
2023/05/08 08:53:56;;;;;;;;;;;;;;;;;;5060722;28;20023;-64
2023/05/08 08:56:22;;;;;;;;;;;;;;;;;;5069675;28;20039;-63
2023/05/08 08:58:49;;;;;;;;;;;;;;;;;;5089741;28;20399;-63
2023/05/08 09:01:15;;;;;;;;;;;;;;;;;;5065726;28;19931;-62
2023/05/08 09:03:41;;;;;;;;;;;;;;;;;;5074461;28;19932;-62
2023/05/08 09:06:07;;;;;;;;;;;;;;;;;;5071699;28;20374;-63
2023/05/08 09:08:33;;;;;;;;;;;;;;;;;;5074194;28;19974;-63
2023/05/08 09:10:59;;;;;;;;;;;;;;;;;;5063533;28;19967;-62
2023/05/08 09:13:25;;;;;;;;;;;;;;;;;;5063639;28;20277;-62
2023/05/08 09:15:51;;;;;;;;;;;;;;;;;;5065662;28;19928;-63
2023/05/08 09:18:18;;;;;;;;;;;;;;;;;;5067030;28;19924;-64
2023/05/08 09:20:43;;;;;;;;;;;;;;;;;;5068277;28;19925;-63
2023/05/08 09:23:10;;;;;;;;;;;;;;;;;;5072690;28;19931;-67
2023/05/08 09:25:36;;;;;;;;;;;;;;;;;;5068002;28;19928;-67
2023/05/08 09:28:01;;;;;;;;;;;;;;;;;;5074682;28;20313;-67
2023/05/08 09:30:27;;;;;;;;;;;;;;;;;;5068030;28;19935;-67
2023/05/08 09:32:53;;;;;;;;;;;;;;;;;;5065975;28;19921;-68
2023/05/08 09:35:19;;;;;;;;;;;;;;;;;;5050721;28;19990;-67
2023/05/08 09:37:46;;;;;;;;;;;;;;;;;;5060863;28;20011;-68
2023/05/08 09:40:12;;;;;;;;;;;;;;;;;;5067076;28;19924;-66
2023/05/08 09:42:38;;;;;;;;;;;;;;;;;;5080360;28;19978;-66
2023/05/08 09:45:04;;;;;;;;;;;;;;;;;;5060007;28;20381;-66
2023/05/08 09:47:30;;;;;;;;;;;;;;;;;;5068218;28;20592;-67
2023/05/08 09:49:55;;;;;;;;;;;;;;;;;;5066884;28;19920;-66
2023/05/08 09:52:21;;;;;;;;;;;;;;;;;;5065181;28;20365;-68
2023/05/08 09:54:47;;;;;;;;;;;;;;;;;;5080806;28;20646;-67
2023/05/08 09:57:13;;;;;;;;;;;;;;;;;;5062084;28;20011;-71
2023/05/08 09:59:39;;;;;;;;;;;;;;;;;;5067508;28;19928;-72
2023/05/08 10:02:06;;;;;;;;;;;;;;;;;;5068106;28;19947;-71
2023/05/08 10:04:32;;;;;;;;;;;;;;;;;;5067842;28;19924;-71
2023/05/08 10:06:58;;;;;;;;;;;;;;;;;;5070311;28;19920;-68
2023/05/08 10:09:23;;;;;;;;;;;;;;;;;;5070041;28;19928;-69
2023/05/08 10:11:54;;;;;;;;;;;;;;;;;;5058746;28;19955;-63
2023/05/08 10:14:20;;;;;;;;;;;;;;;;;;5063618;28;20388;-66
2023/05/08 10:16:47;;;;;;;;;;;;;;;;;;5065449;28;19935;-64
2023/05/08 10:19:13;;;;;;;;;;;;;;;;;;5066873;28;19920;-63
2023/05/08 10:21:41;;;;;;;;;;;;;;;;;;5070815;28;20519;-65
2023/05/08 10:24:07;;;;;;;;;;;;;;;;;;5073817;28;19940;-65
2023/05/08 10:26:33;;;;;;;;;;;;;;;;;;5073688;28;19970;-65
2023/05/08 10:28:59;;;;;;;;;;;;;;;;;;5069482;28;19943;-65
2023/05/08 10:31:25;;;;;;;;;;;;;;;;;;5066386;28;19927;-64
2023/05/08 10:33:51;;;;;;;;;;;;;;;;;;5083532;28;19921;-66
2023/05/08 10:36:16;;;;;;;;;;;;;;;;;;5062431;28;19929;-64
2023/05/08 10:38:42;;;;;;;;;;;;;;;;;;5062949;28;19920;-66
2023/05/08 10:41:08;;;;;;;;;;;;;;;;;;5053257;28;20426;-66
2023/05/08 10:43:34;;;;;;;;;;;;;;;;;;5067671;28;19950;-65
2023/05/08 10:46:00;;;;;;;;;;;;;;;;;;5063842;28;20313;-65
2023/05/08 10:48:26;;;;;;;;;;;;;;;;;;5064013;28;19920;-65
2023/05/08 10:50:52;;;;;;;;;;;;;;;;;;5063457;28;20293;-65
2023/05/08 10:53:18;;;;;;;;;;;;;;;;;;5064098;28;19928;-65
2023/05/08 10:55:44;;;;;;;;;;;;;;;;;;5067058;28;19955;-65
2023/05/08 10:58:10;;;;;;;;;;;;;;;;;;5068846;28;20018;-65
2023/05/08 11:00:36;;;;;;;;;;;;;;;;;;5054549;28;19921;-65
2023/05/08 11:03:01;;;;;;;;;;;;;;;;;;5067434;28;19993;-65
2023/05/08 11:05:27;;;;;;;;;;;;;;;;;;5063983;28;19931;-66
2023/05/08 11:07:55;;;;;;;;;;;;;;;;;;5066728;28;21292;-66
2023/05/08 11:10:21;;;;;;;;;;;;;;;;;;5067221;28;20492;-66
2023/05/08 11:12:47;;;;;;;;;;;;;;;;;;5063349;28;19935;-66
2023/05/08 11:15:13;;;;;;;;;;;;;;;;;;5069489;28;19921;-66
2023/05/08 11:17:45;;;;;;;;;;;;;;;;;;5065659;28;19924;-66
2023/05/08 11:20:11;;;;;;;;;;;;;;;;;;5065120;28;19928;-65
2023/05/08 11:22:37;;;;;;;;;;;;;;;;;;5060284;28;20566;-65
2023/05/08 11:25:04;;;;;;;;;;;;;;;;;;5070569;28;19927;-65
2023/05/08 11:27:29;;;;;;;;;;;;;;;;;;5066220;28;19924;-66
2023/05/08 11:29:55;;;;;;;;;;;;;;;;;;5068699;28;20447;-66
2023/05/08 11:32:25;;;;;;;;;;;;;;;;;;5079106;28;20444;-64
2023/05/08 11:34:50;;;;;;;;;;;;;;;;;;5056223;28;19936;-64
2023/05/08 11:37:16;;;;;;;;;;;;;;;;;;5070379;28;19928;-65
2023/05/08 11:39:42;;;;;;;;;;;;;;;;;;5059210;28;19970;-65
2023/05/08 11:42:08;;;;;;;;;;;;;;;;;;5071048;28;19927;-65
2023/05/08 11:44:34;;;;;;;;;;;;;;;;;;5060789;28;19930;-65
2023/05/08 11:47:00;;;;;;;;;;;;;;;;;;5067117;28;20358;-65
2023/05/08 11:49:27;;;;;;;;;;;;;;;;;;5058268;28;19966;-63
2023/05/08 11:51:56;;;;;;;;;;;;;;;;;;5067617;28;19931;-62
2023/05/08 11:54:22;;;;;;;;;;;;;;;;;;5080412;28;20007;-62
2023/05/08 11:56:48;;;;;;;;;;;;;;;;;;5063734;28;20012;-61
2023/05/08 11:59:14;;;;;;;;;;;;;;;;;;5067557;28;19924;-60
2023/05/08 12:01:40;;;;;;;;;;;;;;;;;;5061672;28;19925;-62
2023/05/08 12:04:06;;;;;;;;;;;;;;;;;;5067588;28;20297;-62
2023/05/08 12:06:32;;;;;;;;;;;;;;;;;;5067332;28;19927;-61
2023/05/08 12:08:58;;;;;;;;;;;;;;;;;;5075346;28;19932;-61
2023/05/08 12:11:24;;;;;;;;;;;;;;;;;;5062679;28;19924;-61
2023/05/08 12:13:50;;;;;;;;;;;;;;;;;;5075049;28;19929;-61
2023/05/08 12:16:16;;;;;;;;;;;;;;;;;;5063414;28;19925;-60
2023/05/08 12:18:42;;;;;;;;;;;;;;;;;;5084578;28;19928;-61
2023/05/08 12:21:08;;;;;;;;;;;;;;;;;;5065680;28;19925;-61
2023/05/08 12:23:34;;;;;;;;;;;;;;;;;;5067781;28;19951;-62
2023/05/08 12:26:00;;;;;;;;;;;;;;;;;;5067437;28;19967;-63
2023/05/08 12:28:26;;;;;;;;;;;;;;;;;;5068254;28;20634;-62
2023/05/08 12:30:52;;;;;;;;;;;;;;;;;;5071124;28;19928;-63
2023/05/08 12:33:18;;;;;;;;;;;;;;;;;;5058302;28;19947;-62
2023/05/08 12:35:44;;;;;;;;;;;;;;;;;;5069973;28;21031;-61
2023/05/08 12:38:10;;;;;;;;;;;;;;;;;;5070663;28;19928;-62
2023/05/08 12:40:37;;;;;;;;;;;;;;;;;;5067411;28;20027;-62
2023/05/08 12:43:03;;;;;;;;;;;;;;;;;;5067331;28;19931;-61
2023/05/08 12:45:29;;;;;;;;;;;;;;;;;;5059703;28;19920;-62
2023/05/08 12:47:55;;;;;;;;;;;;;;;;;;5062448;28;20381;-62
2023/05/08 12:50:21;;;;;;;;;;;;;;;;;;5062113;28;19974;-62
2023/05/08 12:52:47;;;;;;;;;;;;;;;;;;5065109;28;19924;-62
2023/05/08 12:55:13;;;;;;;;;;;;;;;;;;5067915;28;19921;-62
2023/05/08 12:57:39;;;;;;;;;;;;;;;;;;5070862;28;19928;-62
2023/05/08 13:00:05;;;;;;;;;;;;;;;;;;5068981;28;19924;-62
2023/05/08 13:02:31;;;;;;;;;;;;;;;;;;5082191;28;20438;-63
2023/05/08 13:04:58;;;;;;;;;;;;;;;;;;5071567;28;19928;-63
2023/05/08 13:07:24;;;;;;;;;;;;;;;;;;5087348;28;20047;-63
2023/05/08 13:09:50;;;;;;;;;;;;;;;;;;5070128;28;20370;-62
2023/05/08 13:12:16;;;;;;;;;;;;;;;;;;5068845;28;19928;-62
2023/05/08 13:14:41;;;;;;;;;;;;;;;;;;5064921;28;19921;-63
2023/05/08 13:17:07;;;;;;;;;;;;;;;;;;5070294;28;20381;-63
2023/05/08 13:19:33;;;;;;;;;;;;;;;;;;5063124;28;19936;-61
2023/05/08 13:21:59;;;;;;;;;;;;;;;;;;5057920;28;20377;-61
2023/05/08 13:24:25;;;;;;;;;;;;;;;;;;5074842;28;19920;-62
2023/05/08 13:26:51;;;;;;;;;;;;;;;;;;5072877;28;20376;-62
2023/05/08 13:29:17;;;;;;;;;;;;;;;;;;5073558;28;20062;-63
2023/05/08 13:31:43;;;;;;;;;;;;;;;;;;5074880;28;19925;-63
2023/05/08 13:34:09;;;;;;;;;;;;;;;;;;5070194;28;20460;-62
2023/05/08 13:36:35;;;;;;;;;;;;;;;;;;5071101;28;19920;-63
2023/05/08 13:39:01;;;;;;;;;;;;;;;;;;5073421;28;19921;-62
2023/05/08 13:41:27;;;;;;;;;;;;;;;;;;5070833;28;20011;-63
2023/05/08 13:43:52;;;;;;;;;;;;;;;;;;5072081;28;19925;-62
2023/05/08 13:46:18;;;;;;;;;;;;;;;;;;5086858;28;20286;-63
2023/05/08 13:48:44;;;;;;;;;;;;;;;;;;5071005;28;19928;-62
2023/05/08 13:51:10;;;;;;;;;;;;;;;;;;5064229;28;20279;-63
2023/05/08 13:53:36;;;;;;;;;;;;;;;;;;5071689;28;19920;-62
2023/05/08 13:56:02;;;;;;;;;;;;;;;;;;5087504;28;19924;-63
2023/05/08 13:58:28;;;;;;;;;;;;;;;;;;5060111;28;19974;-63
2023/05/08 14:00:54;;;;;;;;;;;;;;;;;;5069993;28;20309;-62
2023/05/08 14:03:20;;;;;;;;;;;;;;;;;;5078932;28;19971;-62
2023/05/08 14:05:46;;;;;;;;;;;;;;;;;;5071094;28;19920;-63
2023/05/08 14:08:11;;;;;;;;;;;;;;;;;;5067045;28;19921;-62
2023/05/08 14:10:39;;;;;;;;;;;;;;;;;;5057947;28;20314;-62
2023/05/08 14:13:05;;;;;;;;;;;;;;;;;;5061345;28;20015;-62
2023/05/08 14:15:31;;;;;;;;;;;;;;;;;;5069168;28;20008;-62
2023/05/08 14:17:57;;;;;;;;;;;;;;;;;;5072545;28;20411;-62
2023/05/08 14:20:23;;;;;;;;;;;;;;;;;;5072021;28;19932;-61
2023/05/08 14:22:50;;;;;;;;;;;;;;;;;;5070264;28;19928;-61
2023/05/08 14:25:16;;;;;;;;;;;;;;;;;;5065397;28;19967;-62
2023/05/08 14:27:42;;;;;;;;;;;;;;;;;;5067909;28;19960;-61
2023/05/08 14:30:08;;;;;;;;;;;;;;;;;;5069209;28;19928;-62
2023/05/08 14:32:33;;;;;;;;;;;;;;;;;;5063882;28;19937;-62
2023/05/08 14:34:59;;;;;;;;;;;;;;;;;;5059571;28;19921;-63
2023/05/08 14:37:25;;;;;;;;;;;;;;;;;;5066121;28;19925;-64
2023/05/08 14:39:53;;;;;;;;;;;;;;;;;;5066214;28;20031;-64
2023/05/08 14:42:18;;;;;;;;;;;;;;;;;;5069385;28;20006;-65
2023/05/08 14:44:44;;;;;;;;;;;;;;;;;;5068976;28;20640;-65
2023/05/08 14:47:10;;;;;;;;;;;;;;;;;;5059398;28;19924;-64
2023/05/08 14:49:36;;;;;;;;;;;;;;;;;;5065236;28;20377;-64
2023/05/08 14:52:02;;;;;;;;;;;;;;;;;;5066701;28;19963;-64
2023/05/08 14:54:28;;;;;;;;;;;;;;;;;;5071840;28;20035;-64
2023/05/08 14:56:54;;;;;;;;;;;;;;;;;;5062013;28;19993;-64
2023/05/08 14:59:20;;;;;;;;;;;;;;;;;;5069792;28;19928;-64
2023/05/08 15:01:46;;;;;;;;;;;;;;;;;;5093501;28;20305;-64
2023/05/08 15:04:11;;;;;;;;;;;;;;;;;;5075922;28;19943;-64
2023/05/08 15:06:39;;;;;;;;;;;;;;;;;;5071406;28;19935;-65
2023/05/08 15:09:05;;;;;;;;;;;;;;;;;;5070647;28;20468;-64
2023/05/08 15:11:31;;;;;;;;;;;;;;;;;;5076686;28;19924;-65
2023/05/08 15:14:00;;;;;;;;;;;;;;;;;;5072199;28;19931;-64
2023/05/08 15:16:26;;;;;;;;;;;;;;;;;;5066700;28;19920;-64
2023/05/08 15:18:52;;;;;;;;;;;;;;;;;;5052096;28;19925;-65
2023/05/08 15:21:24;;;;;;;;;;;;;;;;;;5052222;28;20378;-65
2023/05/08 15:23:50;;;;;;;;;;;;;;;;;;5067184;28;19925;-64
2023/05/08 15:26:16;;;;;;;;;;;;;;;;;;5063042;28;20270;-64
2023/05/08 15:28:42;;;;;;;;;;;;;;;;;;5073494;28;20377;-64
2023/05/08 15:31:07;;;;;;;;;;;;;;;;;;5064694;28;19931;-61
2023/05/08 15:33:33;;;;;;;;;;;;;;;;;;5068925;28;19928;-61
2023/05/08 15:35:59;;;;;;;;;;;;;;;;;;5070351;28;20269;-61
2023/05/08 15:38:26;;;;;;;;;;;;;;;;;;5068174;28;19928;-61
2023/05/08 15:40:52;;;;;;;;;;;;;;;;;;5070973;28;19921;-61
2023/05/08 15:43:18;;;;;;;;;;;;;;;;;;5064091;28;20324;-61
2023/05/08 15:45:44;;;;;;;;;;;;;;;;;;5065111;28;19928;-61
2023/05/08 15:48:10;;;;;;;;;;;;;;;;;;5068006;28;19924;-61
2023/05/08 15:50:35;;;;;;;;;;;;;;;;;;5084320;28;19960;-62
2023/05/08 15:53:01;;;;;;;;;;;;;;;;;;5060548;28;19927;-59
2023/05/08 15:55:27;;;;;;;;;;;;;;;;;;5064056;28;20425;-62
2023/05/08 15:57:53;;;;;;;;;;;;;;;;;;5059426;28;19932;-61
2023/05/08 16:00:19;;;;;;;;;;;;;;;;;;5064589;28;19925;-60
2023/05/08 16:02:46;;;;;;;;;;;;;;;;;;5053534;28;19924;-61
2023/05/08 16:05:12;;;;;;;;;;;;;;;;;;5051655;28;19995;-60
2023/05/08 16:07:38;;;;;;;;;;;;;;;;;;5063513;28;20425;-61
2023/05/08 16:10:04;;;;;;;;;;;;;;;;;;5068690;28;20003;-61
2023/05/08 16:12:29;;;;;;;;;;;;;;;;;;5075498;28;19930;-61
2023/05/08 16:14:56;;;;;;;;;;;;;;;;;;5068499;28;19971;-61
2023/05/08 16:17:21;;;;;;;;;;;;;;;;;;5088663;28;20304;-61
2023/05/08 16:19:47;;;;;;;;;;;;;;;;;;5091644;28;19928;-61
2023/05/08 16:22:13;;;;;;;;;;;;;;;;;;5074222;28;19928;-61
2023/05/08 16:24:39;;;;;;;;;;;;;;;;;;5071472;28;20342;-60
2023/05/08 16:27:05;;;;;;;;;;;;;;;;;;5071599;28;19920;-60
2023/05/08 16:29:31;;;;;;;;;;;;;;;;;;5058953;28;19982;-61
2023/05/08 16:31:57;;;;;;;;;;;;;;;;;;5065570;28;20274;-61
2023/05/08 16:34:23;;;;;;;;;;;;;;;;;;5073769;28;19920;-61
2023/05/08 16:36:49;;;;;;;;;;;;;;;;;;5066561;28;20015;-61